Time;durP1;ratioP1;P1;durP2;ratioP2;P2;SDS_P1;SDS_P2;PMS_P1;PMS_P2;Temp;Humidity;BMP_temperature;BMP_pressure;BME280_temperature;BME280_humidity;BME280_pressure;Samples;Min_cycle;Max_cycle;Signal;HPM_P1;HPM_P2
2023/05/18 00:00:09;;;;;;;0.10;0.10;;;;;;;;;;5046602;28;20251;-74
2023/05/18 00:02:36;;;;;;;0.10;0.10;;;;;;;;;;5035159;28;20209;-73
2023/05/18 00:05:03;;;;;;;0.10;0.10;;;;;;;;;;5046240;28;20239;-74
2023/05/18 00:07:32;;;;;;;0.20;0.20;;;;;;;;;;5051756;28;20242;-73
2023/05/18 00:09:59;;;;;;;0.10;0.10;;;;;;;;;;5046070;28;20233;-74
2023/05/18 00:12:26;;;;;;;0.13;0.13;;;;;;;;;;5051556;28;20299;-73
2023/05/18 00:14:53;;;;;;;0.20;0.20;;;;;;;;;;5046246;28;20243;-74
2023/05/18 00:17:20;;;;;;;0.13;0.13;;;;;;;;;;5051549;28;20241;-74
2023/05/18 00:19:46;;;;;;;0.20;0.20;;;;;;;;;;5046309;28;20240;-74
2023/05/18 00:22:16;;;;;;;0.10;0.10;;;;;;;;;;5051316;28;20253;-74
2023/05/18 00:24:43;;;;;;;0.10;0.10;;;;;;;;;;5045911;28;20205;-74
2023/05/18 00:27:09;;;;;;;0.10;0.10;;;;;;;;;;5051259;28;20497;-74
2023/05/18 00:29:36;;;;;;;0.10;0.10;;;;;;;;;;5045959;28;20238;-73
2023/05/18 00:32:03;;;;;;;0.10;0.10;;;;;;;;;;5050304;28;20259;-74
2023/05/18 00:34:30;;;;;;;0.10;0.10;;;;;;;;;;5046284;28;20250;-74
2023/05/18 00:36:56;;;;;;;0.10;0.10;;;;;;;;;;5049011;28;20271;-75
2023/05/18 00:39:22;;;;;;;0.10;0.10;;;;;;;;;;5047754;28;20455;-73
2023/05/18 00:41:49;;;;;;;0.10;0.10;;;;;;;;;;5048440;28;20489;-73
2023/05/18 00:44:15;;;;;;;0.10;0.10;;;;;;;;;;5048097;28;20206;-74
2023/05/18 00:46:43;;;;;;;0.10;0.10;;;;;;;;;;5047478;28;20616;-74
2023/05/18 00:49:11;;;;;;;0.10;0.10;;;;;;;;;;5048470;28;20214;-73
2023/05/18 00:51:38;;;;;;;0.10;0.10;;;;;;;;;;5046821;28;20256;-73
2023/05/18 00:54:06;;;;;;;0.10;0.10;;;;;;;;;;5049085;28;20272;-74
2023/05/18 00:56:33;;;;;;;0.20;0.20;;;;;;;;;;5045999;28;20258;-74
2023/05/18 00:59:00;;;;;;;0.10;0.10;;;;;;;;;;5049941;28;20231;-74
2023/05/18 01:01:28;;;;;;;0.13;0.13;;;;;;;;;;5045189;28;20240;-74
2023/05/18 01:03:55;;;;;;;0.10;0.10;;;;;;;;;;5049331;28;20423;-74
2023/05/18 01:06:25;;;;;;;0.10;0.10;;;;;;;;;;5044491;28;20235;-74
2023/05/18 01:08:52;;;;;;;0.10;0.10;;;;;;;;;;5050821;28;20251;-74
2023/05/18 01:11:21;;;;;;;0.20;0.20;;;;;;;;;;5043722;28;20260;-74
2023/05/18 01:13:54;;;;;;;0.10;0.10;;;;;;;;;;5050790;28;20207;-74
2023/05/18 01:16:27;;;;;;;0.10;0.10;;;;;;;;;;5044174;28;20262;-74
2023/05/18 01:18:59;;;;;;;0.10;0.10;;;;;;;;;;5050077;28;20192;-74
2023/05/18 01:21:41;;;;;;;0.10;0.10;;;;;;;;;;5044564;28;20244;-74
2023/05/18 01:24:20;;;;;;;0.10;0.10;;;;;;;;;;5048200;28;20209;-75
2023/05/18 01:26:49;;;;;;;0.10;0.10;;;;;;;;;;5047255;28;20450;-74
2023/05/18 01:29:17;;;;;;;0.10;0.10;;;;;;;;;;5047304;28;20258;-74
2023/05/18 01:31:44;;;;;;;0.10;0.10;;;;;;;;;;5046607;28;20314;-73
2023/05/18 01:34:10;;;;;;;0.10;0.10;;;;;;;;;;5048056;28;20240;-72
2023/05/18 01:36:36;;;;;;;0.57;0.57;;;;;;;;;;5046422;28;20297;-74
2023/05/18 01:39:03;;;;;;;0.10;0.10;;;;;;;;;;5049294;28;20270;-73
2023/05/18 01:41:30;;;;;;;0.10;0.10;;;;;;;;;;5044631;28;20258;-74
2023/05/18 01:44:01;;;;;;;0.10;0.10;;;;;;;;;;5049386;28;20457;-74
2023/05/18 01:46:34;;;;;;;0.10;0.10;;;;;;;;;;5044469;28;20614;-74
2023/05/18 01:49:02;;;;;;;0.10;0.10;;;;;;;;;;5048598;28;20213;-74
2023/05/18 01:51:31;;;;;;;0.10;0.10;;;;;;;;;;5044607;28;20262;-73
2023/05/18 01:54:00;;;;;;;0.10;0.10;;;;;;;;;;5048997;28;20275;-74
2023/05/18 01:56:27;;;;;;;0.20;0.20;;;;;;;;;;5044252;28;20240;-73
2023/05/18 01:58:53;;;;;;;0.10;0.10;;;;;;;;;;5049413;28;20298;-74
2023/05/18 02:01:22;;;;;;;0.10;0.10;;;;;;;;;;5043043;28;20240;-72
2023/05/18 02:03:49;;;;;;;0.10;0.10;;;;;;;;;;5050131;28;20204;-74
2023/05/18 02:06:15;;;;;;;0.10;0.10;;;;;;;;;;5042432;28;20242;-75
2023/05/18 02:08:42;;;;;;;0.10;0.10;;;;;;;;;;5050837;28;20275;-74
2023/05/18 02:11:08;;;;;;;0.10;0.10;;;;;;;;;;5041739;28;20565;-75
2023/05/18 02:13:34;;;;;;;0.10;0.10;;;;;;;;;;5051342;28;20280;-75
2023/05/18 02:16:02;;;;;;;0.20;0.20;;;;;;;;;;5040415;28;20586;-74
2023/05/18 02:18:32;;;;;;;0.10;0.10;;;;;;;;;;5052375;28;20209;-74
2023/05/18 02:20:59;;;;;;;0.10;0.10;;;;;;;;;;5040218;28;20243;-75
2023/05/18 02:23:26;;;;;;;0.20;0.20;;;;;;;;;;5052783;28;20207;-74
2023/05/18 02:25:54;;;;;;;0.10;0.10;;;;;;;;;;5039380;28;20285;-75
2023/05/18 02:28:20;;;;;;;0.10;0.10;;;;;;;;;;5053205;28;20279;-74
2023/05/18 02:30:47;;;;;;;0.10;0.10;;;;;;;;;;5038401;28;20252;-75
2023/05/18 02:33:13;;;;;;;0.10;0.10;;;;;;;;;;5054073;28;20211;-74
2023/05/18 02:35:41;;;;;;;0.10;0.10;;;;;;;;;;5037465;28;20240;-75
2023/05/18 02:38:07;;;;;;;0.10;0.10;;;;;;;;;;5054929;28;20223;-74
2023/05/18 02:40:33;;;;;;;0.10;0.10;;;;;;;;;;5036657;28;20247;-74
2023/05/18 02:43:00;;;;;;;0.10;0.10;;;;;;;;;;5055660;28;20212;-74
2023/05/18 02:45:26;;;;;;;0.10;0.10;;;;;;;;;;5035849;28;20230;-75
2023/05/18 02:47:52;;;;;;;0.10;0.10;;;;;;;;;;5056724;28;20453;-75
2023/05/18 02:50:19;;;;;;;0.10;0.10;;;;;;;;;;5034703;28;20519;-75
2023/05/18 02:52:48;;;;;;;0.20;0.20;;;;;;;;;;5057439;28;20442;-75
2023/05/18 02:55:14;;;;;;;0.10;0.10;;;;;;;;;;5033990;28;20198;-75
2023/05/18 02:57:45;;;;;;;0.10;0.10;;;;;;;;;;5058030;28;20263;-74
2023/05/18 03:00:15;;;;;;;0.20;0.20;;;;;;;;;;5034061;28;20192;-75
2023/05/18 03:02:43;;;;;;;0.10;0.10;;;;;;;;;;5057840;28;20250;-75
2023/05/18 03:05:09;;;;;;;0.40;0.40;;;;;;;;;;5033545;28;20275;-75
2023/05/18 03:07:35;;;;;;;0.80;0.80;;;;;;;;;;5058626;28;20232;-75
2023/05/18 03:10:03;;;;;;;0.13;0.13;;;;;;;;;;5043442;28;20236;-75
2023/05/18 03:12:30;;;;;;;0.10;0.10;;;;;;;;;;5048666;28;20255;-75
2023/05/18 03:14:56;;;;;;;0.10;0.10;;;;;;;;;;5043263;28;20375;-74
2023/05/18 03:17:23;;;;;;;0.10;0.10;;;;;;;;;;5048687;28;20309;-75
2023/05/18 03:19:50;;;;;;;0.10;0.10;;;;;;;;;;5043405;28;20449;-75
2023/05/18 03:22:16;;;;;;;0.10;0.10;;;;;;;;;;5048594;28;20295;-75
2023/05/18 03:24:43;;;;;;;0.10;0.10;;;;;;;;;;5043398;28;20524;-75
2023/05/18 03:27:15;;;;;;;0.10;0.10;;;;;;;;;;5049998;28;20249;-74
2023/05/18 03:29:41;;;;;;;0.20;0.20;;;;;;;;;;5046894;28;20193;-74
2023/05/18 03:32:08;;;;;;;0.10;0.10;;;;;;;;;;5052084;28;20258;-75
2023/05/18 03:34:35;;;;;;;0.10;0.10;;;;;;;;;;5046800;28;20205;-75
2023/05/18 03:37:02;;;;;;;0.10;0.10;;;;;;;;;;5051468;28;20247;-74
2023/05/18 03:39:29;;;;;;;1.13;1.13;;;;;;;;;;5047574;28;20237;-75
2023/05/18 03:41:55;;;;;;;0.10;0.10;;;;;;;;;;5050538;28;20253;-75
2023/05/18 03:44:23;;;;;;;0.10;0.10;;;;;;;;;;5048440;28;20452;-75
2023/05/18 03:46:49;;;;;;;0.10;0.10;;;;;;;;;;5049565;28;20254;-75
2023/05/18 03:49:16;;;;;;;0.47;0.47;;;;;;;;;;5048941;28;20475;-74
2023/05/18 03:51:42;;;;;;;0.10;0.10;;;;;;;;;;5048465;28;20302;-74
2023/05/18 03:54:08;;;;;;;0.10;0.10;;;;;;;;;;5049958;28;20271;-74
2023/05/18 03:56:35;;;;;;;0.10;0.10;;;;;;;;;;5047425;28;20269;-74
2023/05/18 03:59:02;;;;;;;0.10;0.10;;;;;;;;;;5050446;28;20293;-75
2023/05/18 04:01:29;;;;;;;0.10;0.10;;;;;;;;;;5045090;28;20335;-75
2023/05/18 04:03:56;;;;;;;0.10;0.10;;;;;;;;;;5052557;28;20401;-74
2023/05/18 04:06:24;;;;;;;0.10;0.10;;;;;;;;;;5045509;28;20247;-76
2023/05/18 04:08:51;;;;;;;0.20;0.20;;;;;;;;;;5052034;28;20207;-77
2023/05/18 04:11:17;;;;;;;0.10;0.10;;;;;;;;;;5044885;28;20244;-75
2023/05/18 04:13:44;;;;;;;0.30;0.30;;;;;;;;;;5052489;28;20239;-74
2023/05/18 04:16:12;;;;;;;0.20;0.20;;;;;;;;;;5043901;28;20255;-74
2023/05/18 04:18:40;;;;;;;0.10;0.10;;;;;;;;;;5053572;28;20271;-74
2023/05/18 04:21:06;;;;;;;0.10;0.10;;;;;;;;;;5043619;28;20245;-75
2023/05/18 04:23:37;;;;;;;0.20;0.20;;;;;;;;;;5053858;28;20282;-74
2023/05/18 04:26:04;;;;;;;0.10;0.10;;;;;;;;;;5043030;28;20289;-74
2023/05/18 04:28:30;;;;;;;0.17;0.17;;;;;;;;;;5054089;28;20207;-75
2023/05/18 04:30:57;;;;;;;0.10;0.10;;;;;;;;;;5041881;28;20236;-75
2023/05/18 04:33:24;;;;;;;0.10;0.10;;;;;;;;;;5054978;28;20208;-74
2023/05/18 04:35:53;;;;;;;0.10;0.10;;;;;;;;;;5040944;28;20524;-74
2023/05/18 04:38:22;;;;;;;0.10;0.10;;;;;;;;;;5055379;28;20235;-75
2023/05/18 04:40:48;;;;;;;0.10;0.10;;;;;;;;;;5040755;28;20302;-74
2023/05/18 04:43:15;;;;;;;0.10;0.10;;;;;;;;;;5055973;28;20404;-74
2023/05/18 04:45:41;;;;;;;0.10;0.10;;;;;;;;;;5039778;28;20502;-74
2023/05/18 04:48:08;;;;;;;0.10;0.10;;;;;;;;;;5056831;28;20244;-75
2023/05/18 04:50:36;;;;;;;0.10;0.10;;;;;;;;;;5038512;28;20578;-75
2023/05/18 04:53:06;;;;;;;0.10;0.10;;;;;;;;;;5057395;28;20558;-75
2023/05/18 04:55:33;;;;;;;0.10;0.10;;;;;;;;;;5038414;28;20282;-75
2023/05/18 04:58:00;;;;;;;0.10;0.10;;;;;;;;;;5057344;28;20314;-75
2023/05/18 05:00:28;;;;;;;0.10;0.10;;;;;;;;;;5037719;28;20253;-75
2023/05/18 05:02:55;;;;;;;0.10;0.10;;;;;;;;;;5058079;28;20197;-74
2023/05/18 05:05:22;;;;;;;1.93;1.90;;;;;;;;;;5036939;28;20207;-75
2023/05/18 05:07:49;;;;;;;0.10;0.10;;;;;;;;;;5058764;28;20233;-74
2023/05/18 05:10:16;;;;;;;0.10;0.10;;;;;;;;;;5035548;28;20274;-75
2023/05/18 05:12:45;;;;;;;0.10;0.10;;;;;;;;;;5059606;28;20300;-75
2023/05/18 05:15:11;;;;;;;0.10;0.10;;;;;;;;;;5035414;28;20214;-75
2023/05/18 05:17:37;;;;;;;0.10;0.10;;;;;;;;;;5059935;28;20274;-74
2023/05/18 05:20:04;;;;;;;0.10;0.10;;;;;;;;;;5045183;28;20273;-74
2023/05/18 05:22:31;;;;;;;0.10;0.10;;;;;;;;;;5050305;28;20312;-75
2023/05/18 05:24:57;;;;;;;0.10;0.10;;;;;;;;;;5044775;28;20207;-75
2023/05/18 05:27:25;;;;;;;0.10;0.10;;;;;;;;;;5050132;28;20497;-75
2023/05/18 05:29:51;;;;;;;0.10;0.10;;;;;;;;;;5044947;28;20509;-75
2023/05/18 05:32:18;;;;;;;0.10;0.10;;;;;;;;;;5050007;28;20240;-74
2023/05/18 05:34:46;;;;;;;0.10;0.10;;;;;;;;;;5044816;28;20452;-75
2023/05/18 05:37:13;;;;;;;0.10;0.10;;;;;;;;;;5049976;28;20261;-75
2023/05/18 05:39:40;;;;;;;0.10;0.10;;;;;;;;;;5044736;28;20232;-75
2023/05/18 05:42:07;;;;;;;0.10;0.10;;;;;;;;;;5049543;28;20301;-74
2023/05/18 05:44:34;;;;;;;0.10;0.10;;;;;;;;;;5044740;28;20211;-75
2023/05/18 05:47:01;;;;;;;0.10;0.10;;;;;;;;;;5048584;28;20235;-75
2023/05/18 05:49:27;;;;;;;0.20;0.20;;;;;;;;;;5044653;28;20416;-74
2023/05/18 05:51:53;;;;;;;0.10;0.10;;;;;;;;;;5047446;28;20311;-75
2023/05/18 05:54:20;;;;;;;0.10;0.10;;;;;;;;;;5046283;28;20226;-75
2023/05/18 05:56:46;;;;;;;0.10;0.10;;;;;;;;;;5046753;28;20290;-75
2023/05/18 05:59:13;;;;;;;0.10;0.10;;;;;;;;;;5046994;28;20455;-75
2023/05/18 06:01:40;;;;;;;0.10;0.10;;;;;;;;;;5045411;28;20306;-75
2023/05/18 06:04:09;;;;;;;0.10;0.10;;;;;;;;;;5048185;28;20254;-75
2023/05/18 06:06:36;;;;;;;0.10;0.10;;;;;;;;;;5045056;28;20239;-75
2023/05/18 06:09:03;;;;;;;0.10;0.10;;;;;;;;;;5048189;28;20445;-75
2023/05/18 06:11:30;;;;;;;0.10;0.10;;;;;;;;;;5044143;28;20239;-75
2023/05/18 06:13:56;;;;;;;0.10;0.10;;;;;;;;;;5048651;28;20204;-75
2023/05/18 06:16:22;;;;;;;0.10;0.10;;;;;;;;;;5043182;28;20255;-75
2023/05/18 06:18:51;;;;;;;0.10;0.10;;;;;;;;;;5049833;28;20418;-74
2023/05/18 06:21:17;;;;;;;0.10;0.10;;;;;;;;;;5042459;28;20263;-75
2023/05/18 06:23:44;;;;;;;0.10;0.10;;;;;;;;;;5050237;28;20237;-75
2023/05/18 06:26:10;;;;;;;0.10;0.10;;;;;;;;;;5041632;28;20240;-75
2023/05/18 06:28:36;;;;;;;0.10;0.10;;;;;;;;;;5051275;28;20280;-76
2023/05/18 06:31:03;;;;;;;0.10;0.10;;;;;;;;;;5040735;28;20262;-76
2023/05/18 06:33:29;;;;;;;0.10;0.10;;;;;;;;;;5052092;28;20243;-76
2023/05/18 06:35:57;;;;;;;0.10;0.10;;;;;;;;;;5039986;28;20251;-76
2023/05/18 06:38:23;;;;;;;0.10;0.10;;;;;;;;;;5052819;28;20208;-76
2023/05/18 06:40:50;;;;;;;0.10;0.10;;;;;;;;;;5039092;28;20553;-76
2023/05/18 06:43:16;;;;;;;0.10;0.10;;;;;;;;;;5053705;28;20211;-76
2023/05/18 06:45:42;;;;;;;0.10;0.10;;;;;;;;;;5037944;28;20305;-76
2023/05/18 06:48:09;;;;;;;0.10;0.10;;;;;;;;;;5054607;28;20272;-76
2023/05/18 06:50:35;;;;;;;0.10;0.10;;;;;;;;;;5036834;28;20298;-76
2023/05/18 06:53:03;;;;;;;0.10;0.10;;;;;;;;;;5055397;28;20298;-76
2023/05/18 06:55:29;;;;;;;0.10;0.10;;;;;;;;;;5036381;28;20434;-76
2023/05/18 06:57:57;;;;;;;0.10;0.10;;;;;;;;;;5056215;28;20253;-78
2023/05/18 07:00:23;;;;;;;0.10;0.10;;;;;;;;;;5035467;28;20395;-74
2023/05/18 07:02:50;;;;;;;0.10;0.10;;;;;;;;;;5059692;28;20392;-76
2023/05/18 07:05:16;;;;;;;0.10;0.10;;;;;;;;;;5038690;28;20396;-76
2023/05/18 07:07:42;;;;;;;0.10;0.10;;;;;;;;;;5061892;28;20276;-76
2023/05/18 07:10:10;;;;;;;0.10;0.10;;;;;;;;;;5037376;28;20209;-76
2023/05/18 07:12:37;;;;;;;0.10;0.10;;;;;;;;;;5062658;28;20265;-77
2023/05/18 07:15:04;;;;;;;0.10;0.10;;;;;;;;;;5047306;28;20236;-74
2023/05/18 07:17:30;;;;;;;0.10;0.10;;;;;;;;;;5052667;28;20242;-76
2023/05/18 07:19:56;;;;;;;0.10;0.10;;;;;;;;;;5047261;28;20278;-76
2023/05/18 07:22:23;;;;;;;0.10;0.10;;;;;;;;;;5052577;28;20238;-77
2023/05/18 07:24:49;;;;;;;0.10;0.10;;;;;;;;;;5047420;28;20270;-77
2023/05/18 07:27:17;;;;;;;0.10;0.10;;;;;;;;;;5052475;28;20240;-77
2023/05/18 07:29:43;;;;;;;0.10;0.10;;;;;;;;;;5047022;28;20208;-75
2023/05/18 07:32:09;;;;;;;0.10;0.10;;;;;;;;;;5052293;28;20498;-75
2023/05/18 07:34:36;;;;;;;0.10;0.10;;;;;;;;;;5047193;28;20291;-74
2023/05/18 07:37:03;;;;;;;0.10;0.10;;;;;;;;;;5051628;28;20251;-75
2023/05/18 07:39:30;;;;;;;0.10;0.10;;;;;;;;;;5047541;28;20239;-75
2023/05/18 07:41:56;;;;;;;0.10;0.10;;;;;;;;;;5050681;28;20250;-74
2023/05/18 07:44:24;;;;;;;0.10;0.10;;;;;;;;;;5048415;28;20552;-74
2023/05/18 07:46:50;;;;;;;0.10;0.10;;;;;;;;;;5049778;28;20250;-74
2023/05/18 07:49:17;;;;;;;0.10;0.10;;;;;;;;;;5048832;28;20279;-75
2023/05/18 07:51:43;;;;;;;0.10;0.10;;;;;;;;;;5048701;28;20558;-74
2023/05/18 07:54:09;;;;;;;0.10;0.10;;;;;;;;;;5049919;28;20286;-74
2023/05/18 07:56:36;;;;;;;0.10;0.10;;;;;;;;;;5047734;28;20258;-75
2023/05/18 07:59:02;;;;;;;0.10;0.10;;;;;;;;;;5050702;28;20473;-74
2023/05/18 08:01:30;;;;;;;0.10;0.10;;;;;;;;;;5046675;28;20295;-74
2023/05/18 08:03:57;;;;;;;0.10;0.10;;;;;;;;;;5051137;28;20341;-75
2023/05/18 08:06:23;;;;;;;0.10;0.10;;;;;;;;;;5046018;28;20440;-75
2023/05/18 08:08:50;;;;;;;0.10;0.10;;;;;;;;;;5051821;28;20252;-74
2023/05/18 08:11:17;;;;;;;0.10;0.10;;;;;;;;;;5045079;28;20515;-75
2023/05/18 08:13:43;;;;;;;0.10;0.10;;;;;;;;;;5052055;28;20255;-75
2023/05/18 08:16:09;;;;;;;0.10;0.10;;;;;;;;;;5043927;28;20306;-76
2023/05/18 08:18:37;;;;;;;0.20;0.20;;;;;;;;;;5053480;28;20209;-74
2023/05/18 08:21:06;;;;;;;0.10;0.10;;;;;;;;;;5043178;28;20260;-76
2023/05/18 08:23:33;;;;;;;0.10;0.10;;;;;;;;;;5054213;28;20237;-75
2023/05/18 08:25:59;;;;;;;0.10;0.10;;;;;;;;;;5042576;28;20659;-75
2023/05/18 08:28:26;;;;;;;0.10;0.10;;;;;;;;;;5054897;28;20215;-76
2023/05/18 08:30:52;;;;;;;0.10;0.10;;;;;;;;;;5041697;28;20430;-75
2023/05/18 08:33:19;;;;;;;0.10;0.10;;;;;;;;;;5055703;28;20488;-75
2023/05/18 08:35:47;;;;;;;0.10;0.10;;;;;;;;;;5040589;28;20457;-74
2023/05/18 08:38:13;;;;;;;0.10;0.10;;;;;;;;;;5056563;28;20218;-75
2023/05/18 08:40:42;;;;;;;0.97;0.97;;;;;;;;;;5039849;28;20241;-74
2023/05/18 08:43:12;;;;;;;0.10;0.10;;;;;;;;;;5056881;28;20434;-75
2023/05/18 08:45:41;;;;;;;0.10;0.10;;;;;;;;;;5039471;28;20249;-75
2023/05/18 08:48:07;;;;;;;0.10;0.10;;;;;;;;;;5056926;28;20237;-75
2023/05/18 08:50:34;;;;;;;0.10;0.10;;;;;;;;;;5038586;28;20312;-75
2023/05/18 08:53:04;;;;;;;0.10;0.10;;;;;;;;;;5057602;28;20294;-75
2023/05/18 08:55:35;;;;;;;0.00;0.00;;;;;;;;;;5038195;28;20312;-75
2023/05/18 08:58:02;;;;;;;0.10;0.10;;;;;;;;;;5057379;28;20272;-75
2023/05/18 09:00:28;;;;;;;0.10;0.10;;;;;;;;;;5038183;28;20527;-75
2023/05/18 09:02:55;;;;;;;0.10;0.10;;;;;;;;;;5058162;28;20210;-75
2023/05/18 09:05:22;;;;;;;0.10;0.10;;;;;;;;;;5037119;28;20214;-75
2023/05/18 09:07:49;;;;;;;0.10;0.10;;;;;;;;;;5058835;28;20468;-75
2023/05/18 09:10:17;;;;;;;0.10;0.10;;;;;;;;;;5035953;28;20235;-75
2023/05/18 09:12:45;;;;;;;0.10;0.10;;;;;;;;;;5059448;28;20230;-75
2023/05/18 09:15:12;;;;;;;0.10;0.10;;;;;;;;;;5035654;28;20206;-74
2023/05/18 09:17:39;;;;;;;0.10;0.10;;;;;;;;;;5060153;28;20470;-75
2023/05/18 09:20:06;;;;;;;0.10;0.10;;;;;;;;;;5045284;28;20236;-75
2023/05/18 09:22:34;;;;;;;0.10;0.10;;;;;;;;;;5050376;28;20553;-75
2023/05/18 09:25:00;;;;;;;0.10;0.10;;;;;;;;;;5043938;28;20206;-75
2023/05/18 09:27:28;;;;;;;0.00;0.00;;;;;;;;;;5050268;28;20478;-74
2023/05/18 09:29:55;;;;;;;0.10;0.10;;;;;;;;;;5045030;28;20207;-75
2023/05/18 09:32:22;;;;;;;0.07;0.07;;;;;;;;;;5049902;28;20246;-75
2023/05/18 09:34:49;;;;;;;0.43;0.40;;;;;;;;;;5044718;28;20231;-76
2023/05/18 09:37:16;;;;;;;0.10;0.10;;;;;;;;;;5049931;28;20242;-75
2023/05/18 09:39:42;;;;;;;0.00;0.00;;;;;;;;;;5044805;28;20278;-75
2023/05/18 09:42:09;;;;;;;0.00;0.00;;;;;;;;;;5049792;28;20305;-75
2023/05/18 09:44:36;;;;;;;0.10;0.10;;;;;;;;;;5044403;28;20208;-75
2023/05/18 09:47:07;;;;;;;0.07;0.07;;;;;;;;;;5049031;28;20260;-75
2023/05/18 09:49:34;;;;;;;0.10;0.10;;;;;;;;;;5044264;28;20235;-75
2023/05/18 09:52:00;;;;;;;0.10;0.10;;;;;;;;;;5048570;28;20544;-75
2023/05/18 09:54:27;;;;;;;0.10;0.10;;;;;;;;;;5045434;28;20543;-75
2023/05/18 09:56:53;;;;;;;0.10;0.10;;;;;;;;;;5047506;28;20293;-75
2023/05/18 09:59:20;;;;;;;0.10;0.10;;;;;;;;;;5046229;28;20293;-75
2023/05/18 10:01:57;;;;;;;0.20;0.20;;;;;;;;;;5046394;28;20240;-75
2023/05/18 10:04:23;;;;;;;0.10;0.10;;;;;;;;;;5045639;28;20202;-74
2023/05/18 10:06:50;;;;;;;0.10;0.10;;;;;;;;;;5046870;28;20247;-75
2023/05/18 10:09:16;;;;;;;0.10;0.10;;;;;;;;;;5046640;28;20205;-75
2023/05/18 10:11:43;;;;;;;0.10;0.10;;;;;;;;;;5046076;28;20241;-75
2023/05/18 10:14:10;;;;;;;0.10;0.10;;;;;;;;;;5046869;28;20230;-75
2023/05/18 10:16:37;;;;;;;0.10;0.10;;;;;;;;;;5044999;28;20239;-75
2023/05/18 10:19:06;;;;;;;0.10;0.10;;;;;;;;;;5047999;28;20204;-75
2023/05/18 10:21:33;;;;;;;0.10;0.10;;;;;;;;;;5044495;28;20310;-75
2023/05/18 10:24:03;;;;;;;0.10;0.10;;;;;;;;;;5048115;28;20266;-75
2023/05/18 10:26:30;;;;;;;0.10;0.10;;;;;;;;;;5044047;28;20260;-75
2023/05/18 10:28:57;;;;;;;0.10;0.10;;;;;;;;;;5048475;28;20244;-76
2023/05/18 10:31:24;;;;;;;0.10;0.10;;;;;;;;;;5043328;28;20307;-76
2023/05/18 10:33:52;;;;;;;0.10;0.10;;;;;;;;;;5049080;28;20433;-75
2023/05/18 10:36:20;;;;;;;0.10;0.10;;;;;;;;;;5042235;28;20239;-75
2023/05/18 10:38:48;;;;;;;0.00;0.00;;;;;;;;;;5049695;28;20248;-75
2023/05/18 10:41:15;;;;;;;0.10;0.10;;;;;;;;;;5041693;28;20239;-75
2023/05/18 10:43:41;;;;;;;0.10;0.10;;;;;;;;;;5050305;28;20228;-76
2023/05/18 10:46:08;;;;;;;0.10;0.10;;;;;;;;;;5040925;28;20263;-76
2023/05/18 10:48:38;;;;;;;0.10;0.10;;;;;;;;;;5051128;28;20209;-75
2023/05/18 10:51:06;;;;;;;0.00;0.00;;;;;;;;;;5040596;28;20263;-75
2023/05/18 10:53:35;;;;;;;0.10;0.10;;;;;;;;;;5051219;28;20235;-75
2023/05/18 10:56:01;;;;;;;0.10;0.10;;;;;;;;;;5040173;28;20465;-75
2023/05/18 10:58:29;;;;;;;1.27;1.27;;;;;;;;;;5052019;28;20462;-75
2023/05/18 11:00:56;;;;;;;0.10;0.10;;;;;;;;;;5039315;28;20249;-76
2023/05/18 11:03:24;;;;;;;0.00;0.00;;;;;;;;;;5052671;28;20233;-75
2023/05/18 11:05:51;;;;;;;0.10;0.10;;;;;;;;;;5038507;28;20311;-75
2023/05/18 11:08:26;;;;;;;0.00;0.00;;;;;;;;;;5053038;28;20262;-75
2023/05/18 11:11:00;;;;;;;0.10;0.10;;;;;;;;;;5039061;28;20241;-75
2023/05/18 11:13:28;;;;;;;0.10;0.10;;;;;;;;;;5051956;28;20229;-75
2023/05/18 11:16:05;;;;;;;0.08;0.08;;;;;;;;;;5038912;28;20315;-76
2023/05/18 11:18:35;;;;;;;0.20;0.20;;;;;;;;;;5051316;28;20251;-76
2023/05/18 11:21:02;;;;;;;0.10;0.10;;;;;;;;;;5040148;28;20327;-74
2023/05/18 11:23:31;;;;;;;0.10;0.10;;;;;;;;;;5051679;28;20269;-75
2023/05/18 11:26:03;;;;;;;0.10;0.10;;;;;;;;;;5039566;28;20259;-75
2023/05/18 11:28:30;;;;;;;0.00;0.00;;;;;;;;;;5051513;28;20216;-74
2023/05/18 11:30:56;;;;;;;0.20;0.20;;;;;;;;;;5038647;28;20274;-78
2023/05/18 11:33:24;;;;;;;0.00;0.00;;;;;;;;;;5052673;28;20470;-78
2023/05/18 11:36:12;;;;;;;0.10;0.10;;;;;;;;;;5038479;28;20311;-77
2023/05/18 11:38:45;;;;;;;0.00;0.00;;;;;;;;;;5050510;28;20369;-77
2023/05/18 11:41:27;;;;;;;0.45;0.40;;;;;;;;;;5041252;28;20240;-78
2023/05/18 11:44:05;;;;;;;0.10;0.10;;;;;;;;;;5048476;28;20205;-76
2023/05/18 11:46:31;;;;;;;0.10;0.10;;;;;;;;;;5043580;28;20257;-77
2023/05/18 11:49:02;;;;;;;0.10;0.10;;;;;;;;;;5050162;28;20244;-78
2023/05/18 11:51:30;;;;;;;0.10;0.10;;;;;;;;;;5046145;28;20245;-75
2023/05/18 11:53:57;;;;;;;0.10;0.10;;;;;;;;;;5051644;28;20226;-77
2023/05/18 11:56:24;;;;;;;0.00;0.00;;;;;;;;;;5046091;28;20475;-72
2023/05/18 11:59:05;;;;;;;0.10;0.10;;;;;;;;;;5051929;28;20273;-75
2023/05/18 12:01:33;;;;;;;0.10;0.10;;;;;;;;;;5046375;28;20598;-76
2023/05/18 12:04:00;;;;;;;1.35;1.25;;;;;;;;;;5051260;28;20243;-76
2023/05/18 12:06:27;;;;;;;0.10;0.10;;;;;;;;;;5046332;28;20317;-76
2023/05/18 12:08:54;;;;;;;0.05;0.05;;;;;;;;;;5051672;28;20389;-76
2023/05/18 12:11:22;;;;;;;0.10;0.10;;;;;;;;;;5045522;28;20243;-76
2023/05/18 12:13:50;;;;;;;0.08;0.08;;;;;;;;;;5051907;28;20230;-76
2023/05/18 12:16:17;;;;;;;0.10;0.10;;;;;;;;;;5045011;28;20249;-76
2023/05/18 12:18:49;;;;;;;0.03;0.03;;;;;;;;;;5052567;28;20233;-76
2023/05/18 12:21:20;;;;;;;0.10;0.10;;;;;;;;;;5044796;28;20247;-76
2023/05/18 12:23:46;;;;;;;0.10;0.10;;;;;;;;;;5052036;28;20197;-75
2023/05/18 12:26:13;;;;;;;0.10;0.10;;;;;;;;;;5044153;28;20241;-76
2023/05/18 12:28:39;;;;;;;0.03;0.03;;;;;;;;;;5053214;28;20215;-76
2023/05/18 12:31:07;;;;;;;0.10;0.10;;;;;;;;;;5043395;28;20456;-76
2023/05/18 12:33:33;;;;;;;0.10;0.10;;;;;;;;;;5053676;28;20237;-76
2023/05/18 12:36:01;;;;;;;0.10;0.10;;;;;;;;;;5042554;28;20301;-77
2023/05/18 12:38:27;;;;;;;0.10;0.10;;;;;;;;;;5054512;28;20222;-76
2023/05/18 12:40:55;;;;;;;0.00;0.00;;;;;;;;;;5041563;28;20269;-77
2023/05/18 12:43:25;;;;;;;0.00;0.00;;;;;;;;;;5054697;28;20204;-77
2023/05/18 12:45:51;;;;;;;0.08;0.08;;;;;;;;;;5041012;28;20289;-77
2023/05/18 12:48:18;;;;;;;0.00;0.00;;;;;;;;;;5055507;28;20239;-76
2023/05/18 12:50:47;;;;;;;0.03;0.03;;;;;;;;;;5040191;28;20459;-76
2023/05/18 12:53:15;;;;;;;0.05;0.05;;;;;;;;;;5055756;28;20257;-76
2023/05/18 12:55:41;;;;;;;0.10;0.10;;;;;;;;;;5039548;28;20249;-76
2023/05/18 12:58:14;;;;;;;0.00;0.00;;;;;;;;;;5056173;28;20239;-76
2023/05/18 13:00:42;;;;;;;3.50;3.40;;;;;;;;;;5039365;28;20249;-77
2023/05/18 13:03:09;;;;;;;0.10;0.10;;;;;;;;;;5056447;28;20378;-78
2023/05/18 13:05:36;;;;;;;0.10;0.10;;;;;;;;;;5038667;28;20247;-77
2023/05/18 13:08:03;;;;;;;0.00;0.00;;;;;;;;;;5057143;28;20230;-78
2023/05/18 13:10:31;;;;;;;0.00;0.00;;;;;;;;;;5037967;28;20294;-78
2023/05/18 13:13:02;;;;;;;0.05;0.05;;;;;;;;;;5057728;28;20210;-79
2023/05/18 13:15:32;;;;;;;0.05;0.05;;;;;;;;;;5037529;28;20249;-78
2023/05/18 13:17:59;;;;;;;0.08;0.08;;;;;;;;;;5057645;28;20242;-77
2023/05/18 13:20:32;;;;;;;0.10;0.10;;;;;;;;;;5037404;28;20237;-77
2023/05/18 13:22:59;;;;;;;0.05;0.05;;;;;;;;;;5057326;28;20214;-78
2023/05/18 13:25:26;;;;;;;0.10;0.10;;;;;;;;;;5037271;28;20401;-78
2023/05/18 13:27:54;;;;;;;0.05;0.05;;;;;;;;;;5058156;28;20274;-78
2023/05/18 13:30:21;;;;;;;0.08;0.08;;;;;;;;;;5036202;28;20249;-78
2023/05/18 13:32:47;;;;;;;0.05;0.05;;;;;;;;;;5058514;28;20279;-77
2023/05/18 13:35:14;;;;;;;0.10;0.10;;;;;;;;;;5035489;28;20413;-77
2023/05/18 13:37:40;;;;;;;0.10;0.10;;;;;;;;;;5059441;28;20207;-78
2023/05/18 13:40:07;;;;;;;0.10;0.10;;;;;;;;;;5044668;28;20254;-78
2023/05/18 13:46:11;;;;;;;0.10;0.10;;;;;;;;;;5090565;27;20550;-78
2023/05/18 13:48:37;;;;;;;0.10;0.10;;;;;;;;;;5077663;28;20238;-77
2023/05/18 13:51:04;;;;;;;0.08;0.08;;;;;;;;;;5065505;28;20256;-75
2023/05/18 13:53:30;;;;;;;0.10;0.10;;;;;;;;;;5077896;28;20235;-76
2023/05/18 13:55:56;;;;;;;0.10;0.10;;;;;;;;;;5063260;28;20241;-78
2023/05/18 13:58:23;;;;;;;0.00;0.00;;;;;;;;;;5080144;28;20535;-73
2023/05/18 14:00:52;;;;;;;0.00;0.00;;;;;;;;;;5061212;28;20259;-75
2023/05/18 14:03:20;;;;;;;0.10;0.10;;;;;;;;;;5081560;28;20484;-76
2023/05/18 14:05:46;;;;;;;0.08;0.08;;;;;;;;;;5061060;28;20346;-77
2023/05/18 14:08:13;;;;;;;0.00;0.00;;;;;;;;;;5082323;28;20205;-76
2023/05/18 14:10:39;;;;;;;0.10;0.10;;;;;;;;;;5059017;28;20269;-76
2023/05/18 14:13:07;;;;;;;0.00;0.00;;;;;;;;;;5084395;28;20229;-75
2023/05/18 14:15:33;;;;;;;0.10;0.10;;;;;;;;;;5057191;28;20284;-75
2023/05/18 14:18:00;;;;;;;0.00;0.00;;;;;;;;;;5085811;28;20207;-75
2023/05/18 14:20:28;;;;;;;0.10;0.10;;;;;;;;;;5055092;28;20218;-75
2023/05/18 14:22:54;;;;;;;0.10;0.10;;;;;;;;;;5087605;28;20238;-75
2023/05/18 14:25:21;;;;;;;0.00;0.00;;;;;;;;;;5053905;28;20298;-75
2023/05/18 14:27:47;;;;;;;0.10;0.10;;;;;;;;;;5089228;28;20227;-75
2023/05/18 14:30:14;;;;;;;0.05;0.05;;;;;;;;;;5051973;28;20199;-75
2023/05/18 14:32:40;;;;;;;0.10;0.10;;;;;;;;;;5090654;28;20224;-76
2023/05/18 14:35:07;;;;;;;0.00;0.00;;;;;;;;;;5060331;28;20242;-76
2023/05/18 14:37:34;;;;;;;0.10;0.10;;;;;;;;;;5048873;28;20225;-75
2023/05/18 14:40:01;;;;;;;0.10;0.10;;;;;;;;;;5060388;28;20218;-75
2023/05/18 14:42:27;;;;;;;0.10;0.10;;;;;;;;;;5081991;28;20302;-75
2023/05/18 14:44:54;;;;;;;0.00;0.00;;;;;;;;;;5059486;28;20265;-78
2023/05/18 14:47:21;;;;;;;0.10;0.10;;;;;;;;;;5081057;28;20249;-75